Hickory Ridge, Arkansas
Current Conditions -  °F | °C
As of 1:56 PM on Thursday 29 Jan 2015 (Local Time) from KM19 Reporting Station
Overcast Overcast  
Wind Chill: 12°   Ceiling: 3700
Heat Index: 12°   Visibility: 10mi
Dew Point:   Wind: 20mph
Humidity: 57%   Direction: 330°NNW
Pressure: 30.2"   Gusts: NA
Location:  35.4°N, 91°W
Report Text: KM19 291956Z AUTO 33017KT 10SM OVC037 12/03 A3020 RMK AO2 T01160033 SLP226
Loading
Personal Weather Stations






























Interactive Weather Map New forecast layout! Learn more

10-Day Weather Forecast

Advertisements
Track Severe Weather on mobile